createdAt,value
2023-12-11T00:00:53.394Z,7.50
2023-12-11T00:03:20.213Z,7.60
2023-12-11T00:05:47.033Z,7.60
2023-12-11T00:08:14.028Z,7.50
2023-12-11T00:10:40.856Z,7.50
2023-12-11T00:13:07.509Z,7.60
2023-12-11T00:15:34.301Z,7.50
2023-12-11T00:18:01.292Z,7.50
2023-12-11T00:20:27.979Z,7.20
2023-12-11T00:22:55.567Z,7.50
2023-12-11T00:25:22.302Z,7.50
2023-12-11T00:27:48.993Z,7.50
2023-12-11T00:30:15.761Z,7.50
2023-12-11T00:32:42.478Z,7.60
2023-12-11T00:35:09.533Z,7.50
2023-12-11T00:37:36.233Z,7.60
2023-12-11T00:40:03.004Z,7.50
2023-12-11T00:42:29.810Z,7.50
2023-12-11T00:44:56.701Z,7.50
2023-12-11T00:47:24.003Z,7.60
2023-12-11T00:49:50.931Z,7.50
2023-12-11T00:52:17.955Z,7.50
2023-12-11T00:54:44.707Z,7.50
2023-12-11T00:57:12.618Z,7.50
2023-12-11T00:59:40.516Z,7.50
2023-12-11T01:02:07.245Z,7.50
2023-12-11T01:04:34.034Z,7.50
2023-12-11T01:07:01.013Z,7.50
2023-12-11T01:09:27.973Z,7.50
2023-12-11T01:11:54.908Z,7.50
2023-12-11T01:14:21.569Z,7.50
2023-12-11T01:16:48.522Z,7.50
2023-12-11T01:19:15.716Z,7.60
2023-12-11T01:21:42.740Z,7.50
2023-12-11T01:24:09.453Z,7.50
2023-12-11T01:26:36.103Z,7.50
2023-12-11T01:29:02.840Z,7.50
2023-12-11T01:31:29.653Z,8.10
2023-12-11T01:33:56.513Z,7.50
2023-12-11T01:36:23.644Z,7.50
2023-12-11T01:38:51.740Z,7.60
2023-12-11T01:41:18.473Z,7.60
2023-12-11T01:43:55.260Z,7.60
2023-12-11T01:46:22.712Z,7.60
2023-12-11T01:48:50.736Z,7.50
2023-12-11T01:51:18.657Z,7.50
2023-12-11T01:53:46.706Z,7.40
2023-12-11T01:56:13.901Z,7.30
2023-12-11T01:58:40.840Z,7.30
2023-12-11T02:01:09.217Z,7.30
2023-12-11T02:03:36.934Z,7.30
2023-12-11T02:06:04.090Z,7.30
2023-12-11T02:08:32.369Z,7.30
2023-12-11T02:10:59.743Z,7.30
2023-12-11T02:13:28.822Z,7.30
2023-12-11T02:16:02.025Z,7.40
2023-12-11T02:18:29.058Z,7.40
2023-12-11T02:20:55.817Z,7.40
2023-12-11T02:23:36.195Z,7.40
2023-12-11T02:26:09.171Z,7.40
2023-12-11T02:28:35.990Z,7.50
2023-12-11T02:31:02.811Z,7.50
2023-12-11T02:33:29.565Z,7.50
2023-12-11T02:35:57.673Z,7.50
2023-12-11T02:38:24.762Z,7.50
2023-12-11T02:40:51.535Z,7.50
2023-12-11T02:43:18.179Z,7.50
2023-12-11T02:45:44.990Z,7.50
2023-12-11T02:48:12.216Z,7.50
2023-12-11T02:50:39.254Z,7.50
2023-12-11T02:53:06.263Z,7.50
2023-12-11T02:55:33.011Z,7.50
2023-12-11T02:58:00.721Z,7.50
2023-12-11T03:00:27.932Z,7.50
2023-12-11T03:02:54.766Z,7.50
2023-12-11T03:05:21.607Z,7.50
2023-12-11T03:07:49.509Z,7.50
2023-12-11T03:10:16.430Z,7.50
2023-12-11T03:12:43.255Z,7.50
2023-12-11T03:15:10.182Z,7.50
2023-12-11T03:17:37.047Z,7.50
2023-12-11T03:20:04.186Z,7.60
2023-12-11T03:22:30.994Z,7.60
2023-12-11T03:24:57.825Z,7.60
2023-12-11T03:27:24.459Z,7.60
2023-12-11T03:29:51.180Z,7.60
2023-12-11T03:32:17.888Z,7.60
2023-12-11T03:34:44.701Z,7.70
2023-12-11T03:37:11.530Z,7.80
2023-12-11T03:39:38.352Z,7.80
2023-12-11T03:42:10.700Z,7.80
2023-12-11T03:44:37.408Z,7.90
2023-12-11T03:47:04.405Z,7.90
2023-12-11T03:49:31.272Z,8.00
2023-12-11T03:51:58.164Z,7.90
2023-12-11T03:54:25.135Z,7.90
2023-12-11T03:56:51.895Z,7.90
2023-12-11T03:59:18.620Z,7.90
2023-12-11T04:01:46.697Z,7.90
2023-12-11T04:04:13.685Z,7.90
2023-12-11T04:06:41.349Z,7.90
2023-12-11T04:09:09.165Z,8.00
2023-12-11T04:11:36.626Z,7.80
2023-12-11T04:14:03.872Z,7.80
2023-12-11T04:16:30.631Z,7.80
2023-12-11T04:19:00.368Z,7.70
2023-12-11T04:21:27.873Z,7.70
2023-12-11T04:23:56.964Z,7.70
2023-12-11T04:26:24.036Z,7.70
2023-12-11T04:28:50.876Z,7.70
2023-12-11T04:31:17.804Z,7.60
2023-12-11T04:33:44.876Z,7.60
2023-12-11T04:36:11.753Z,7.60
2023-12-11T04:38:38.614Z,7.50
2023-12-11T04:41:05.608Z,7.50
2023-12-11T04:43:34.628Z,7.50
2023-12-11T04:46:01.357Z,7.50
2023-12-11T04:48:28.371Z,7.50
2023-12-11T04:50:55.211Z,7.50
2023-12-11T04:53:21.969Z,7.50
2023-12-11T04:55:48.794Z,7.40
2023-12-11T04:58:15.709Z,7.40
2023-12-11T05:00:42.541Z,7.40
2023-12-11T05:03:10.011Z,7.30
2023-12-11T05:05:37.703Z,7.30
2023-12-11T05:08:04.591Z,7.30
2023-12-11T05:10:31.331Z,7.20
2023-12-11T05:12:57.989Z,7.20
2023-12-11T05:15:24.799Z,7.20
2023-12-11T05:17:51.494Z,7.20
2023-12-11T05:20:19.655Z,7.10
2023-12-11T05:22:46.558Z,7.10
2023-12-11T05:25:13.574Z,7.10
2023-12-11T05:27:40.626Z,7.20
2023-12-11T05:30:07.884Z,7.20
2023-12-11T05:32:34.666Z,7.20
2023-12-11T05:35:01.541Z,7.20
2023-12-11T05:37:28.371Z,7.30
2023-12-11T05:40:01.768Z,7.30
2023-12-11T05:42:41.822Z,7.30
2023-12-11T05:45:09.949Z,7.40
2023-12-11T05:47:37.320Z,7.40
2023-12-11T05:50:04.577Z,7.40
2023-12-11T05:52:31.300Z,7.50
2023-12-11T05:54:58.076Z,7.50
2023-12-11T05:57:24.806Z,7.50
2023-12-11T05:59:51.892Z,7.50
2023-12-11T06:02:18.595Z,7.50
2023-12-11T06:04:45.248Z,7.50
2023-12-11T06:07:12.090Z,7.40
2023-12-11T06:09:38.903Z,7.40
2023-12-11T06:12:05.895Z,7.40
2023-12-11T06:14:32.885Z,7.40
2023-12-11T06:16:59.922Z,7.40
2023-12-11T06:19:26.748Z,7.40
2023-12-11T06:21:53.466Z,7.40
2023-12-11T06:24:20.244Z,7.30
2023-12-11T06:26:46.919Z,7.30
2023-12-11T06:29:13.909Z,7.30
2023-12-11T06:31:40.656Z,7.40
2023-12-11T06:34:07.472Z,7.40
2023-12-11T06:36:34.511Z,7.50
2023-12-11T06:39:01.328Z,7.50
2023-12-11T06:41:27.973Z,7.50
2023-12-11T06:43:55.280Z,7.50
2023-12-11T06:46:22.100Z,7.50
2023-12-11T06:48:49.138Z,7.50
2023-12-11T06:51:17.538Z,7.50
2023-12-11T06:53:44.669Z,7.50
2023-12-11T06:56:17.314Z,7.50
2023-12-11T06:58:44.025Z,7.50
2023-12-11T07:01:11.133Z,7.50
2023-12-11T07:03:38.114Z,7.50
2023-12-11T07:06:05.130Z,7.40
2023-12-11T07:08:32.122Z,7.40
2023-12-11T07:10:58.885Z,7.40
2023-12-11T07:13:25.856Z,7.40
2023-12-11T07:15:52.576Z,7.40
2023-12-11T07:18:20.062Z,7.40
2023-12-11T07:20:46.749Z,7.30
2023-12-11T07:23:13.383Z,7.30
2023-12-11T07:25:40.196Z,7.40
2023-12-11T07:28:07.393Z,7.30
2023-12-11T07:30:34.429Z,7.30
2023-12-11T07:33:01.520Z,7.20
2023-12-11T07:35:28.247Z,7.20
2023-12-11T07:37:54.915Z,7.20
2023-12-11T07:40:21.624Z,7.10
2023-12-11T07:42:48.372Z,7.10
2023-12-11T07:45:15.500Z,7.10
2023-12-11T07:47:42.327Z,7.10
2023-12-11T07:50:10.633Z,7.10
2023-12-11T07:52:37.407Z,7.10
2023-12-11T07:55:04.239Z,7.10
2023-12-11T07:57:31.364Z,7.20
2023-12-11T07:59:58.279Z,7.10
2023-12-11T08:02:24.904Z,7.10
2023-12-11T08:04:51.688Z,7.00
2023-12-11T08:07:19.606Z,8.10
2023-12-11T08:09:46.925Z,6.90
2023-12-11T08:12:13.662Z,7.00
2023-12-11T08:14:40.669Z,7.00
2023-12-11T08:17:07.673Z,7.10
2023-12-11T08:19:34.908Z,7.20
2023-12-11T08:22:02.202Z,7.30
2023-12-11T08:24:29.145Z,7.40
2023-12-11T08:26:55.911Z,7.50
2023-12-11T08:29:23.011Z,7.50
2023-12-11T08:31:50.245Z,7.60
2023-12-11T08:34:17.179Z,7.60
2023-12-11T08:36:44.923Z,7.70
2023-12-11T08:39:11.644Z,7.70
2023-12-11T08:41:38.299Z,7.80
2023-12-11T08:44:05.013Z,7.80
2023-12-11T08:46:32.952Z,7.80
2023-12-11T08:49:00.220Z,7.80
2023-12-11T08:51:26.941Z,7.80
2023-12-11T08:53:53.748Z,7.80
2023-12-11T08:56:21.293Z,7.80
2023-12-11T08:58:48.175Z,7.80
2023-12-11T09:01:15.150Z,7.70
2023-12-11T09:03:44.042Z,7.80
2023-12-11T09:06:11.436Z,7.80
2023-12-11T09:08:38.287Z,7.90
2023-12-11T09:11:05.277Z,8.00
2023-12-11T09:13:31.970Z,8.10
2023-12-11T09:15:58.978Z,8.20
2023-12-11T09:18:26.155Z,8.20
2023-12-11T09:20:52.967Z,8.20
2023-12-11T09:23:19.720Z,8.20
2023-12-11T09:25:47.104Z,8.30
2023-12-11T09:28:13.936Z,8.30
2023-12-11T09:30:40.640Z,8.40
2023-12-11T09:33:08.374Z,8.40
2023-12-11T09:35:36.339Z,8.40
2023-12-11T09:38:03.709Z,8.50
2023-12-11T09:40:30.532Z,8.50
2023-12-11T09:42:58.925Z,8.60
2023-12-11T09:45:25.780Z,9.30
2023-12-11T09:48:04.684Z,8.80
2023-12-11T09:50:38.947Z,8.80
2023-12-11T09:53:05.863Z,8.90
2023-12-11T09:55:32.599Z,8.90
2023-12-11T09:57:59.882Z,9.00
2023-12-11T10:00:27.510Z,9.00
2023-12-11T10:02:54.837Z,9.00
2023-12-11T10:05:26.089Z,9.80
2023-12-11T10:07:53.132Z,9.10
2023-12-11T10:10:24.108Z,9.10
2023-12-11T10:12:51.048Z,9.10
2023-12-11T10:15:21.926Z,9.10
2023-12-11T10:18:00.296Z,9.10
2023-12-11T10:20:27.397Z,9.10
2023-12-11T10:22:54.390Z,9.10
2023-12-11T10:25:24.692Z,9.10
2023-12-11T10:27:51.453Z,9.20
2023-12-11T10:30:20.330Z,9.20
2023-12-11T10:32:47.219Z,9.30
2023-12-11T10:35:23.727Z,9.40
2023-12-11T10:37:50.568Z,9.50
2023-12-11T10:40:18.192Z,9.50
2023-12-11T10:42:45.071Z,9.60
2023-12-11T10:45:11.784Z,9.60
2023-12-11T10:47:40.870Z,9.70
2023-12-11T10:50:07.930Z,9.70
2023-12-11T10:52:35.091Z,9.80
2023-12-11T10:55:01.870Z,9.80
2023-12-11T10:57:29.887Z,9.90
2023-12-11T10:59:56.874Z,10.00
2023-12-11T11:02:24.047Z,10.00
2023-12-11T11:04:51.210Z,10.10
2023-12-11T11:07:32.280Z,10.10
2023-12-11T11:10:05.468Z,10.20
2023-12-11T11:12:36.686Z,10.20
2023-12-11T11:15:03.764Z,10.30
2023-12-11T11:17:49.277Z,10.30
2023-12-11T11:20:19.175Z,10.30
2023-12-11T11:22:47.228Z,10.30
2023-12-11T11:25:29.393Z,10.30
2023-12-11T11:27:56.547Z,10.30
2023-12-11T11:30:52.217Z,10.30
2023-12-11T11:33:20.259Z,10.30
2023-12-11T11:35:46.939Z,10.30
2023-12-11T11:38:17.829Z,10.40
2023-12-11T11:40:45.698Z,10.40
2023-12-11T11:43:13.058Z,10.30
2023-12-11T11:45:39.838Z,10.40
2023-12-11T11:48:08.800Z,10.30
2023-12-11T11:50:36.731Z,10.30
2023-12-11T11:53:12.761Z,10.20
2023-12-11T11:55:40.510Z,10.10
2023-12-11T11:58:16.856Z,10.00
2023-12-11T12:00:44.213Z,10.10
2023-12-11T12:03:12.322Z,10.10
2023-12-11T12:05:52.506Z,10.20
2023-12-11T12:08:19.360Z,10.20
2023-12-11T12:10:46.028Z,10.20
2023-12-11T12:13:12.707Z,10.10
2023-12-11T12:15:53.084Z,10.00
2023-12-11T12:18:19.955Z,10.00
2023-12-11T12:21:00.851Z,10.10
2023-12-11T12:23:27.677Z,10.00
2023-12-11T12:25:58.804Z,10.10
2023-12-11T12:28:26.105Z,10.30
2023-12-11T12:30:53.142Z,10.40
2023-12-11T12:33:20.784Z,10.60
2023-12-11T12:35:48.257Z,10.80
2023-12-11T12:38:16.275Z,10.90
2023-12-11T12:40:43.419Z,10.90
2023-12-11T12:43:14.514Z,10.80
2023-12-11T12:45:42.233Z,10.80
2023-12-11T12:48:10.334Z,10.80
2023-12-11T12:50:37.268Z,10.80
2023-12-11T12:53:07.685Z,10.70
2023-12-11T12:55:34.855Z,10.70
2023-12-11T12:58:01.536Z,10.90
2023-12-11T13:00:28.457Z,10.70
2023-12-11T13:02:56.066Z,10.60
2023-12-11T13:05:36.890Z,10.60
2023-12-11T13:08:03.664Z,10.60
2023-12-11T13:10:30.459Z,10.60
2023-12-11T13:12:57.319Z,10.60
2023-12-11T13:15:24.236Z,10.50
2023-12-11T13:17:55.499Z,10.40
2023-12-11T13:20:22.430Z,10.30
2023-12-11T13:22:49.556Z,10.30
2023-12-11T13:25:16.703Z,10.20
2023-12-11T13:27:48.062Z,10.10
2023-12-11T13:30:16.934Z,9.90
2023-12-11T13:32:43.986Z,9.90
2023-12-11T13:35:11.160Z,9.80
2023-12-11T13:37:38.742Z,9.80
2023-12-11T13:40:09.338Z,9.70
2023-12-11T13:42:37.300Z,9.70
2023-12-11T13:45:05.083Z,9.60
2023-12-11T13:47:32.101Z,9.50
2023-12-11T13:49:59.398Z,9.50
2023-12-11T13:52:26.613Z,9.40
2023-12-11T13:54:53.681Z,9.40
2023-12-11T13:57:21.166Z,9.30
2023-12-11T13:59:47.906Z,9.20
2023-12-11T14:02:14.725Z,9.20
2023-12-11T14:04:41.690Z,9.10
2023-12-11T14:07:08.784Z,9.10
2023-12-11T14:09:37.075Z,9.00
2023-12-11T14:12:05.087Z,8.90
2023-12-11T14:14:31.808Z,8.90
2023-12-11T14:16:59.472Z,8.90
2023-12-11T14:19:27.317Z,8.80
2023-12-11T14:21:54.142Z,8.80
2023-12-11T14:24:20.835Z,8.80
2023-12-11T14:26:52.262Z,8.80
2023-12-11T14:29:19.356Z,8.80
2023-12-11T14:31:50.713Z,8.80
2023-12-11T14:34:17.542Z,8.80
2023-12-11T14:36:44.628Z,8.70
2023-12-11T14:39:12.190Z,8.60
2023-12-11T14:41:45.185Z,8.60
2023-12-11T14:44:13.716Z,8.50
2023-12-11T14:46:40.368Z,8.40
2023-12-11T14:49:07.346Z,8.40
2023-12-11T14:51:39.871Z,8.40
2023-12-11T14:54:09.803Z,8.30
2023-12-11T14:56:36.921Z,8.40
2023-12-11T14:59:03.643Z,8.40
2023-12-11T15:01:30.335Z,8.40
2023-12-11T15:03:57.186Z,8.40
2023-12-11T15:06:24.091Z,8.40
2023-12-11T15:08:50.958Z,8.30
2023-12-11T15:11:20.254Z,9.10
2023-12-11T15:13:48.198Z,8.20
2023-12-11T15:16:15.355Z,8.20
2023-12-11T15:18:42.190Z,8.20
2023-12-11T15:21:09.266Z,8.20
2023-12-11T15:23:36.100Z,8.20
2023-12-11T15:26:03.186Z,8.10
2023-12-11T15:28:29.989Z,8.00
2023-12-11T15:31:12.588Z,8.00
2023-12-11T15:33:41.525Z,8.00
2023-12-11T15:36:13.646Z,7.90
2023-12-11T15:38:40.349Z,7.80
2023-12-11T15:41:06.971Z,7.70
2023-12-11T15:43:33.627Z,7.70
2023-12-11T15:46:00.285Z,7.70
2023-12-11T15:48:27.026Z,7.60
2023-12-11T15:50:53.759Z,7.50
2023-12-11T15:53:20.628Z,7.50
2023-12-11T15:55:47.322Z,7.50
2023-12-11T15:58:14.047Z,7.40
2023-12-11T16:00:40.790Z,7.30
2023-12-11T16:03:07.514Z,7.30
2023-12-11T16:05:34.265Z,7.30
2023-12-11T16:08:01.275Z,7.20
2023-12-11T16:10:28.049Z,7.20
2023-12-11T16:12:54.996Z,7.20
2023-12-11T16:15:21.633Z,7.20
2023-12-11T16:17:48.397Z,7.20
2023-12-11T16:20:15.196Z,7.10
2023-12-11T16:22:41.859Z,7.10
2023-12-11T16:25:11.865Z,7.10
2023-12-11T16:27:39.195Z,7.10
2023-12-11T16:30:06.290Z,7.10
2023-12-11T16:32:33.194Z,7.00
2023-12-11T16:35:00.315Z,7.10
2023-12-11T16:37:27.218Z,7.00
2023-12-11T16:39:54.165Z,7.00
2023-12-11T16:42:20.868Z,7.00
2023-12-11T16:44:47.578Z,7.00
2023-12-11T16:47:14.240Z,6.90
2023-12-11T16:49:48.038Z,6.90
2023-12-11T16:52:23.047Z,6.80
2023-12-11T16:54:51.422Z,6.80
2023-12-11T16:57:18.100Z,6.80
2023-12-11T16:59:45.572Z,6.80
2023-12-11T17:02:12.352Z,6.80
2023-12-11T17:04:39.179Z,6.70
2023-12-11T17:07:06.076Z,6.70
2023-12-11T17:09:32.823Z,7.20
2023-12-11T17:11:59.502Z,6.70
2023-12-11T17:14:26.236Z,6.80
2023-12-11T17:16:52.923Z,6.70
2023-12-11T17:19:19.723Z,6.70
2023-12-11T17:21:46.481Z,6.70
2023-12-11T17:24:14.305Z,6.60
2023-12-11T17:26:41.134Z,6.60
2023-12-11T17:29:08.092Z,6.60
2023-12-11T17:31:34.759Z,6.60
2023-12-11T17:34:01.553Z,6.60
2023-12-11T17:36:28.302Z,6.60
2023-12-11T17:38:57.590Z,6.60
2023-12-11T17:41:24.940Z,6.60
2023-12-11T17:43:51.905Z,6.60
2023-12-11T17:46:18.696Z,6.60
2023-12-11T17:48:47.041Z,6.60
2023-12-11T17:51:13.879Z,7.40
2023-12-11T17:53:40.586Z,6.50
2023-12-11T17:56:17.093Z,6.50
2023-12-11T17:58:47.496Z,6.60
2023-12-11T18:01:14.826Z,6.50
2023-12-11T18:03:41.787Z,6.50
2023-12-11T18:06:16.883Z,6.50
2023-12-11T18:08:44.178Z,6.50
2023-12-11T18:11:11.151Z,6.50
2023-12-11T18:13:39.626Z,6.50
2023-12-11T18:16:07.040Z,6.50
2023-12-11T18:18:35.266Z,6.50
2023-12-11T18:21:02.304Z,6.60
2023-12-11T18:23:28.971Z,6.60
2023-12-11T18:25:55.673Z,6.60
2023-12-11T18:28:22.578Z,6.60
2023-12-11T18:31:00.767Z,6.60
2023-12-11T18:33:27.834Z,6.60
2023-12-11T18:35:55.962Z,6.60
2023-12-11T18:38:22.688Z,6.60
2023-12-11T18:40:52.523Z,6.70
2023-12-11T18:43:22.094Z,6.70
2023-12-11T18:45:49.179Z,6.70
2023-12-11T18:48:16.254Z,6.80
2023-12-11T18:50:43.206Z,6.80
2023-12-11T18:53:09.866Z,6.80
2023-12-11T18:55:36.605Z,6.80
2023-12-11T18:58:03.379Z,6.80
2023-12-11T19:00:30.043Z,6.80
2023-12-11T19:02:56.855Z,6.80
2023-12-11T19:05:24.948Z,6.70
2023-12-11T19:07:53.539Z,6.60
2023-12-11T19:10:20.726Z,6.60
2023-12-11T19:12:50.306Z,6.60
2023-12-11T19:15:17.432Z,6.60
2023-12-11T19:17:45.758Z,6.60
2023-12-11T19:20:12.620Z,6.60
2023-12-11T19:22:39.312Z,6.70
2023-12-11T19:25:09.160Z,6.70
2023-12-11T19:30:23.258Z,6.80
2023-12-11T19:32:50.719Z,6.80
2023-12-11T19:35:17.970Z,6.80
2023-12-11T19:37:44.672Z,6.90
2023-12-11T19:40:11.627Z,7.00
2023-12-11T19:42:48.419Z,7.00
2023-12-11T19:45:15.786Z,7.00
2023-12-11T19:47:43.133Z,7.20
2023-12-11T19:50:10.628Z,7.10
2023-12-11T19:52:37.661Z,7.10
2023-12-11T19:55:04.702Z,7.10
2023-12-11T19:57:32.168Z,7.20
2023-12-11T20:00:02.696Z,7.30
2023-12-11T20:02:29.571Z,7.30
2023-12-11T20:04:56.175Z,7.40
2023-12-11T20:07:23.430Z,7.30
2023-12-11T20:09:50.173Z,7.30
2023-12-11T20:12:17.366Z,7.30
2023-12-11T20:14:44.375Z,7.30
2023-12-11T20:17:11.139Z,7.20
2023-12-11T20:19:38.071Z,7.20
2023-12-11T20:22:05.505Z,7.20
2023-12-11T20:24:32.454Z,7.10
2023-12-11T20:26:59.345Z,7.00
2023-12-11T20:29:26.014Z,7.00
2023-12-11T20:31:53.019Z,6.90
2023-12-11T20:34:19.994Z,6.90
2023-12-11T20:36:48.013Z,6.80
2023-12-11T20:39:14.721Z,6.70
2023-12-11T20:41:41.283Z,6.70
2023-12-11T20:44:08.518Z,6.70
2023-12-11T20:46:35.482Z,6.60
2023-12-11T20:49:02.297Z,6.60
2023-12-11T20:51:29.452Z,6.60
2023-12-11T20:53:56.184Z,6.60
2023-12-11T20:56:27.004Z,6.60
2023-12-11T20:58:54.677Z,6.60
2023-12-11T21:01:31.040Z,6.60
2023-12-11T21:03:58.568Z,6.60
2023-12-11T21:06:25.492Z,6.50
2023-12-11T21:08:52.198Z,6.40
2023-12-11T21:11:19.667Z,6.40
2023-12-11T21:13:46.577Z,6.40
2023-12-11T21:16:13.232Z,6.30
2023-12-11T21:18:40.017Z,6.30
2023-12-11T21:21:12.107Z,6.30
2023-12-11T21:23:41.338Z,6.30
2023-12-11T21:26:13.677Z,6.30
2023-12-11T21:28:40.277Z,6.20
2023-12-11T21:31:07.109Z,6.20
2023-12-11T21:33:33.777Z,6.20
2023-12-11T21:36:00.415Z,6.20
2023-12-11T21:38:26.989Z,6.20
2023-12-11T21:40:53.627Z,6.30
2023-12-11T21:43:20.428Z,6.40
2023-12-11T21:45:49.892Z,6.50
2023-12-11T21:48:16.601Z,6.60
2023-12-11T21:50:46.553Z,6.60
2023-12-11T21:53:13.213Z,6.60
2023-12-11T21:55:39.800Z,6.60
2023-12-11T21:58:06.641Z,6.70
2023-12-11T22:00:33.284Z,6.70
2023-12-11T22:02:59.981Z,6.80
2023-12-11T22:05:26.913Z,6.80
2023-12-11T22:07:53.736Z,6.70
2023-12-11T22:10:20.636Z,6.60
2023-12-11T22:12:47.326Z,6.60
2023-12-11T22:15:15.161Z,6.60
2023-12-11T22:17:42.065Z,6.60
2023-12-11T22:20:12.599Z,6.60
2023-12-11T22:22:39.317Z,6.60
2023-12-11T22:25:08.556Z,6.60
2023-12-11T22:27:35.234Z,6.50
2023-12-11T22:30:01.892Z,6.50
2023-12-11T22:32:28.538Z,6.50
2023-12-11T22:34:55.354Z,6.40
2023-12-11T22:37:22.343Z,6.40
2023-12-11T22:39:49.102Z,6.30
2023-12-11T22:42:15.796Z,6.20
2023-12-11T22:44:45.468Z,6.20
2023-12-11T22:47:12.186Z,6.20
2023-12-11T22:49:39.012Z,6.10
2023-12-11T22:52:06.137Z,6.10
2023-12-11T22:54:33.032Z,6.00
2023-12-11T22:56:59.929Z,6.00
2023-12-11T22:59:26.634Z,6.20
2023-12-11T23:01:53.591Z,5.90
2023-12-11T23:04:20.466Z,5.80
2023-12-11T23:06:47.436Z,6.60
2023-12-11T23:09:14.087Z,5.80
2023-12-11T23:11:40.827Z,5.80
2023-12-11T23:14:07.456Z,5.80
2023-12-11T23:16:34.353Z,5.80
2023-12-11T23:19:01.166Z,5.90
2023-12-11T23:21:29.684Z,5.90
2023-12-11T23:23:57.369Z,5.90
2023-12-11T23:26:24.393Z,5.90
2023-12-11T23:28:51.388Z,5.90
2023-12-11T23:31:18.521Z,6.40
2023-12-11T23:33:45.283Z,5.90
2023-12-11T23:36:13.122Z,5.90
2023-12-11T23:38:39.831Z,5.90
2023-12-11T23:41:06.808Z,5.90
2023-12-11T23:43:33.554Z,5.90
2023-12-11T23:46:00.436Z,5.80
2023-12-11T23:48:27.111Z,5.80
2023-12-11T23:50:53.837Z,5.80
2023-12-11T23:53:20.473Z,5.90
2023-12-11T23:55:48.222Z,5.80
2023-12-11T23:58:14.849Z,5.80
